createdAt,value
2017-08-18T00:00:45.694Z,0
2017-08-18T00:03:09.985Z,0
2017-08-18T00:05:34.478Z,0
2017-08-18T00:07:58.946Z,0
2017-08-18T00:10:23.659Z,0
2017-08-18T00:12:48.148Z,0
2017-08-18T00:15:12.485Z,0
2017-08-18T00:17:22.983Z,0
2017-08-18T00:19:47.500Z,0
2017-08-18T00:22:11.894Z,0
2017-08-18T00:24:36.246Z,0
2017-08-18T00:27:00.834Z,0
2017-08-18T00:29:25.150Z,0
2017-08-18T00:31:49.525Z,0
2017-08-18T00:34:05.408Z,0
2017-08-18T00:36:29.828Z,0
2017-08-18T00:38:54.192Z,0
2017-08-18T00:41:18.567Z,0
2017-08-18T00:43:42.967Z,0
2017-08-18T00:46:07.387Z,0
2017-08-18T00:48:31.756Z,0
2017-08-18T00:50:56.111Z,0
2017-08-18T00:53:20.547Z,0
2017-08-18T00:55:44.899Z,0
2017-08-18T00:58:09.203Z,0
2017-08-18T01:00:33.604Z,0
2017-08-18T01:02:57.889Z,0
2017-08-18T01:05:22.484Z,0
2017-08-18T01:07:46.668Z,0
2017-08-18T01:10:11.193Z,0
2017-08-18T01:12:35.557Z,0
2017-08-18T01:14:59.948Z,0
2017-08-18T01:17:24.314Z,0
2017-08-18T01:19:40.267Z,0
2017-08-18T01:22:04.733Z,0
2017-08-18T01:24:29.066Z,0
2017-08-18T01:26:53.681Z,0
2017-08-18T01:29:09.407Z,0
2017-08-18T01:31:33.772Z,0
2017-08-18T01:33:58.056Z,0
2017-08-18T01:36:22.239Z,0
2017-08-18T01:38:46.582Z,0
2017-08-18T01:41:11.011Z,0
2017-08-18T01:43:35.387Z,0
2017-08-18T01:45:59.654Z,0
2017-08-18T01:48:23.944Z,0
2017-08-18T01:50:48.340Z,0
2017-08-18T01:53:12.737Z,0
2017-08-18T01:55:37.028Z,0
2017-08-18T02:00:02.769Z,0
2017-08-18T02:02:27.294Z,0
2017-08-18T02:04:51.587Z,0
2017-08-18T02:07:15.813Z,0
2017-08-18T02:09:40.114Z,0
2017-08-18T02:12:04.421Z,0
2017-08-18T02:14:28.696Z,0
2017-08-18T02:16:52.942Z,0
2017-08-18T02:19:08.834Z,0
2017-08-18T02:21:33.160Z,0
2017-08-18T02:23:57.434Z,0
2017-08-18T02:26:21.703Z,0
2017-08-18T02:28:45.987Z,0
2017-08-18T02:31:10.295Z,0
2017-08-18T02:33:34.620Z,0
2017-08-18T02:35:59.067Z,0
2017-08-18T02:38:23.553Z,0
2017-08-18T02:40:47.938Z,0
2017-08-18T02:43:12.253Z,0
2017-08-18T02:45:36.546Z,0
2017-08-18T02:48:01.067Z,0
2017-08-18T02:50:26.192Z,0
2017-08-18T02:52:50.933Z,0
2017-08-18T02:55:15.256Z,0
2017-08-18T02:57:39.747Z,0
2017-08-18T03:00:03.909Z,0
2017-08-18T03:02:28.081Z,0
2017-08-18T03:04:52.246Z,0
2017-08-18T03:07:16.558Z,0
2017-08-18T03:09:40.756Z,0
2017-08-18T03:12:05.287Z,0
2017-08-18T03:14:30.060Z,0
2017-08-18T03:16:54.501Z,0
2017-08-18T03:19:19.528Z,0
2017-08-18T03:21:44.419Z,0
2017-08-18T03:24:08.917Z,0
2017-08-18T03:26:33.503Z,0
2017-08-18T03:28:57.880Z,0
2017-08-18T03:31:22.904Z,0
2017-08-18T03:33:47.349Z,0
2017-08-18T03:36:11.634Z,0
2017-08-18T03:38:36.336Z,0
2017-08-18T03:40:51.997Z,0
2017-08-18T03:43:16.230Z,0
2017-08-18T03:45:32.130Z,0
2017-08-18T03:47:56.984Z,0
2017-08-18T03:50:22.811Z,0
2017-08-18T03:52:47.071Z,0
2017-08-18T03:55:11.349Z,0
2017-08-18T03:57:36.090Z,4
2017-08-18T04:00:00.756Z,8
2017-08-18T04:02:24.945Z,8
2017-08-18T04:04:49.271Z,12
2017-08-18T04:07:13.596Z,16
2017-08-18T04:09:37.988Z,24
2017-08-18T04:12:02.479Z,32
2017-08-18T04:14:26.874Z,40
2017-08-18T04:16:51.172Z,56
2017-08-18T04:19:15.600Z,76
2017-08-18T04:21:39.881Z,104
2017-08-18T04:24:05.208Z,124
2017-08-18T04:26:29.410Z,152
2017-08-18T04:28:53.679Z,184
2017-08-18T04:31:18.007Z,224
2017-08-18T04:33:42.317Z,288
2017-08-18T04:36:06.558Z,400
2017-08-18T04:38:30.984Z,484
2017-08-18T04:40:55.364Z,540
2017-08-18T04:43:19.542Z,592
2017-08-18T04:45:43.832Z,660
2017-08-18T04:48:08.079Z,700
2017-08-18T04:50:32.394Z,704
2017-08-18T04:52:57.119Z,632
2017-08-18T04:55:22.548Z,628
2017-08-18T04:57:47.452Z,624
2017-08-18T05:00:11.929Z,688
2017-08-18T05:02:36.270Z,1112
2017-08-18T05:05:00.667Z,960
2017-08-18T05:07:25.134Z,600
2017-08-18T05:09:50.666Z,596
2017-08-18T05:12:15.008Z,708
2017-08-18T05:14:39.524Z,820
2017-08-18T05:17:03.869Z,988
2017-08-18T05:19:28.554Z,956
2017-08-18T05:21:52.947Z,888
2017-08-18T05:24:17.312Z,752
2017-08-18T05:26:41.767Z,644
2017-08-18T05:29:06.241Z,576
2017-08-18T05:31:30.533Z,684
2017-08-18T05:33:54.856Z,940
2017-08-18T05:36:19.273Z,1228
2017-08-18T05:38:43.667Z,1396
2017-08-18T05:41:07.990Z,1568
2017-08-18T05:43:32.322Z,1624
2017-08-18T05:45:56.735Z,1672
2017-08-18T05:51:33.699Z,2244
2017-08-18T05:53:44.872Z,3228
2017-08-18T05:56:09.342Z,1136
2017-08-18T05:58:34.191Z,1336
2017-08-18T06:00:50.094Z,1744
2017-08-18T06:03:14.491Z,2864
2017-08-18T06:05:38.863Z,4628
2017-08-18T06:07:54.859Z,6776
2017-08-18T06:10:19.282Z,3608
2017-08-18T06:12:43.681Z,3020
2017-08-18T06:15:08.163Z,3204
2017-08-18T06:17:32.826Z,3296
2017-08-18T06:20:02.197Z,2284
2017-08-18T06:22:23.737Z,1844
2017-08-18T06:24:48.196Z,1428
2017-08-18T06:27:12.675Z,1264
2017-08-18T06:29:37.082Z,1184
2017-08-18T06:32:01.596Z,1112
2017-08-18T06:34:26.013Z,1052
2017-08-18T06:36:50.401Z,1068
2017-08-18T06:39:14.910Z,1060
2017-08-18T06:41:39.309Z,1076
2017-08-18T06:46:02.212Z,1044
2017-08-18T06:49:53.990Z,896
2017-08-18T06:52:18.336Z,852
2017-08-18T06:54:42.681Z,852
2017-08-18T06:57:07.060Z,872
2017-08-18T06:59:31.448Z,876
2017-08-18T07:01:55.832Z,872
2017-08-18T07:04:20.236Z,996
2017-08-18T07:06:44.600Z,1164
2017-08-18T07:09:09.009Z,1304
2017-08-18T07:11:33.305Z,1760
2017-08-18T07:13:57.734Z,1704
2017-08-18T07:16:23.161Z,2512
2017-08-18T07:18:47.526Z,3452
2017-08-18T07:21:11.978Z,5168
2017-08-18T07:23:36.426Z,7284
2017-08-18T07:26:14.737Z,6120
2017-08-18T07:28:39.552Z,7168
2017-08-18T07:31:04.278Z,7696
2017-08-18T07:33:29.859Z,8024
2017-08-18T07:35:54.753Z,6564
2017-08-18T07:38:21.468Z,10268
2017-08-18T07:40:48.306Z,13116
2017-08-18T07:43:16.802Z,14512
2017-08-18T07:49:33.814Z,9484
2017-08-18T07:52:05.682Z,8360
2017-08-18T07:54:22.971Z,7196
2017-08-18T07:56:39.995Z,6520
2017-08-18T08:01:02.347Z,17248
2017-08-18T08:03:27.552Z,7464
2017-08-18T08:05:52.685Z,6120
2017-08-18T08:08:17.710Z,6516
2017-08-18T08:10:42.796Z,8792
2017-08-18T08:13:07.864Z,7076
2017-08-18T08:15:32.874Z,5956
2017-08-18T08:17:35.632Z,6432
2017-08-18T08:22:14.827Z,7068
2017-08-18T08:24:31.369Z,6064
2017-08-18T08:26:56.479Z,4784
2017-08-18T08:29:28.368Z,5384
2017-08-18T08:31:53.335Z,6096
2017-08-18T08:34:09.783Z,7036
2017-08-18T08:36:34.786Z,7152
2017-08-18T08:38:59.803Z,8544
2017-08-18T08:41:24.818Z,9600
2017-08-18T08:43:49.947Z,20032
2017-08-18T08:46:15.174Z,18592
2017-08-18T08:48:40.562Z,16864
2017-08-18T08:51:05.943Z,15424
2017-08-18T08:53:31.377Z,13652
2017-08-18T08:55:56.929Z,12072
2017-08-18T08:58:22.594Z,12356
2017-08-18T09:00:48.409Z,11776
2017-08-18T09:03:14.031Z,11360
2017-08-18T09:05:39.724Z,9540
2017-08-18T09:08:05.636Z,6260
2017-08-18T09:10:31.406Z,8284
2017-08-18T09:12:56.930Z,10364
2017-08-18T09:15:22.692Z,9008
2017-08-18T09:17:48.429Z,8068
2017-08-18T09:20:14.146Z,8280
2017-08-18T09:22:31.399Z,7628
2017-08-18T09:24:57.103Z,7164
2017-08-18T09:27:22.806Z,8068
2017-08-18T09:29:48.531Z,7768
2017-08-18T09:32:14.252Z,6400
2017-08-18T09:34:39.980Z,5776
2017-08-18T09:39:09.000Z,5820
2017-08-18T09:41:34.726Z,5816
2017-08-18T09:44:00.400Z,5368
2017-08-18T09:46:11.312Z,4348
2017-08-18T09:48:37.045Z,4868
2017-08-18T09:51:02.645Z,5616
2017-08-18T09:53:28.238Z,5760
2017-08-18T09:55:53.832Z,5552
2017-08-18T09:58:19.512Z,5592
2017-08-18T10:00:45.117Z,4980
2017-08-18T10:03:10.842Z,5408
2017-08-18T10:05:36.439Z,4816
2017-08-18T10:08:02.105Z,5000
2017-08-18T10:10:27.586Z,3944
2017-08-18T10:12:53.324Z,5076
2017-08-18T10:15:18.843Z,4416
2017-08-18T10:19:20.850Z,4248
2017-08-18T10:23:41.770Z,4072
2017-08-18T10:25:58.782Z,4060
2017-08-18T10:28:31.363Z,3796
2017-08-18T10:30:56.816Z,3804
2017-08-18T10:33:22.323Z,3656
2017-08-18T10:35:47.765Z,3844
2017-08-18T10:38:04.695Z,3480
2017-08-18T10:40:30.150Z,3484
2017-08-18T10:42:55.462Z,3404
2017-08-18T10:45:12.373Z,3512
2017-08-18T10:47:37.801Z,3352
2017-08-18T10:50:03.039Z,3620
2017-08-18T10:52:28.618Z,3196
2017-08-18T10:54:54.008Z,2904
2017-08-18T10:57:19.371Z,3100
2017-08-18T10:59:44.735Z,3508
2017-08-18T11:02:10.034Z,3348
2017-08-18T11:04:35.701Z,3684
2017-08-18T11:07:01.298Z,2776
2017-08-18T11:09:26.506Z,4040
2017-08-18T11:11:51.713Z,3556
2017-08-18T11:14:17.132Z,3348
2017-08-18T11:16:28.793Z,3704
2017-08-18T11:18:55.504Z,3512
2017-08-18T11:21:22.029Z,3456
2017-08-18T11:23:49.220Z,3308
2017-08-18T11:28:22.092Z,3092
2017-08-18T11:30:51.315Z,2976
2017-08-18T11:33:17.007Z,2916
2017-08-18T11:35:42.319Z,2416
2017-08-18T11:38:07.736Z,2676
2017-08-18T11:40:36.532Z,2684
2017-08-18T11:43:04.736Z,2384
2017-08-18T11:45:31.670Z,2460
2017-08-18T11:47:57.889Z,2500
2017-08-18T11:50:23.320Z,2320
2017-08-18T11:52:48.714Z,2236
2017-08-18T11:55:15.468Z,2096
2017-08-18T11:57:40.838Z,2568
2017-08-18T12:00:06.258Z,2140
2017-08-18T12:04:33.704Z,2360
2017-08-18T12:06:45.340Z,2612
2017-08-18T12:09:10.676Z,2604
2017-08-18T12:11:35.916Z,2700
2017-08-18T12:14:02.000Z,2888
2017-08-18T12:16:28.255Z,3332
2017-08-18T12:18:53.788Z,3740
2017-08-18T12:21:19.525Z,3572
2017-08-18T12:23:45.183Z,3148
2017-08-18T12:26:10.471Z,3244
2017-08-18T12:28:36.228Z,3124
2017-08-18T12:31:01.199Z,3252
2017-08-18T12:33:26.655Z,3036
2017-08-18T12:35:52.319Z,2748
2017-08-18T12:38:18.692Z,3264
2017-08-18T12:40:44.740Z,3560
2017-08-18T12:43:11.302Z,3072
2017-08-18T12:45:38.408Z,3368
2017-08-18T12:48:04.612Z,3096
2017-08-18T12:50:30.611Z,3620
2017-08-18T12:52:56.474Z,2936
2017-08-18T12:55:31.637Z,3092
2017-08-18T12:57:57.306Z,2916
2017-08-18T13:00:22.635Z,2948
2017-08-18T13:02:48.377Z,2808
2017-08-18T13:05:16.529Z,2576
2017-08-18T13:07:51.615Z,2896
2017-08-18T13:10:18.620Z,2876
2017-08-18T13:12:44.695Z,2832
2017-08-18T13:15:11.341Z,3284
2017-08-18T13:17:38.156Z,2908
2017-08-18T13:20:02.697Z,2824
2017-08-18T13:22:28.058Z,2460
2017-08-18T13:24:53.723Z,2060
2017-08-18T13:27:19.054Z,2012
2017-08-18T13:29:45.232Z,1788
2017-08-18T13:32:10.691Z,1272
2017-08-18T13:34:38.597Z,972
2017-08-18T13:37:03.752Z,988
2017-08-18T13:39:29.108Z,1000
2017-08-18T13:41:54.256Z,916
2017-08-18T13:44:19.458Z,596
2017-08-18T13:46:36.033Z,448
2017-08-18T13:49:01.221Z,484
2017-08-18T13:51:26.142Z,644
2017-08-18T13:53:42.795Z,760
2017-08-18T13:56:07.872Z,744
2017-08-18T13:58:32.925Z,1240
2017-08-18T14:00:57.838Z,1704
2017-08-18T14:03:22.893Z,1540
2017-08-18T14:05:48.730Z,1380
2017-08-18T14:08:13.552Z,1580
2017-08-18T14:10:45.220Z,2024
2017-08-18T14:13:10.142Z,2528
2017-08-18T14:15:35.010Z,2936
2017-08-18T14:17:59.886Z,3204
2017-08-18T14:20:24.598Z,3232
2017-08-18T14:22:49.443Z,3272
2017-08-18T14:27:16.058Z,3028
2017-08-18T14:33:45.571Z,3072
2017-08-18T14:36:10.628Z,3036
2017-08-18T14:38:35.589Z,3160
2017-08-18T14:41:05.328Z,2816
2017-08-18T14:43:21.794Z,2944
2017-08-18T14:45:46.760Z,2368
2017-08-18T14:48:11.786Z,2044
2017-08-18T14:52:13.209Z,1496
2017-08-18T14:54:29.692Z,1404
2017-08-18T14:56:54.636Z,1328
2017-08-18T14:59:19.631Z,1244
2017-08-18T15:01:44.622Z,732
2017-08-18T15:09:13.828Z,320
2017-08-18T15:11:51.075Z,484
2017-08-18T15:14:15.859Z,776
2017-08-18T15:16:40.810Z,892
2017-08-18T15:19:05.419Z,1268
2017-08-18T15:21:30.021Z,1408
2017-08-18T15:23:54.680Z,1692
2017-08-18T15:26:19.813Z,1960
2017-08-18T15:28:45.888Z,1592
2017-08-18T15:31:10.450Z,1428
2017-08-18T15:38:23.001Z,2028
2017-08-18T15:40:48.213Z,1968
2017-08-18T15:45:16.680Z,1368
2017-08-18T15:47:28.631Z,696
2017-08-18T15:49:54.790Z,496
2017-08-18T15:52:19.408Z,480
2017-08-18T15:54:43.927Z,556
2017-08-18T15:57:34.496Z,464
2017-08-18T16:00:01.063Z,424
2017-08-18T16:02:25.155Z,384
2017-08-18T16:04:51.686Z,244
2017-08-18T16:07:17.415Z,276
2017-08-18T16:09:43.571Z,264
2017-08-18T16:12:08.391Z,200
2017-08-18T16:14:46.145Z,152
2017-08-18T16:17:05.647Z,160
2017-08-18T16:19:30.260Z,180
2017-08-18T16:23:56.353Z,164
2017-08-18T16:26:20.877Z,192
2017-08-18T16:28:45.400Z,180
2017-08-18T16:31:10.342Z,200
2017-08-18T16:33:34.893Z,192
2017-08-18T16:35:59.365Z,160
2017-08-18T16:38:15.262Z,152
2017-08-18T16:40:31.276Z,112
2017-08-18T16:42:55.731Z,144
2017-08-18T16:47:08.497Z,220
2017-08-18T16:49:24.421Z,112
2017-08-18T16:51:48.824Z,84
2017-08-18T16:53:59.345Z,96
2017-08-18T16:56:23.751Z,92
2017-08-18T16:58:48.068Z,120
2017-08-18T17:02:49.570Z,168
2017-08-18T17:05:14.029Z,156
2017-08-18T17:07:38.418Z,148
2017-08-18T17:10:02.928Z,156
2017-08-18T17:12:27.308Z,172
2017-08-18T17:14:51.683Z,180
2017-08-18T17:18:51.935Z,140
2017-08-18T17:21:16.255Z,112
2017-08-18T17:23:40.594Z,92
2017-08-18T17:26:04.926Z,68
2017-08-18T17:28:29.220Z,60
2017-08-18T17:30:53.520Z,76
2017-08-18T17:33:17.796Z,76
2017-08-18T17:35:41.997Z,84
2017-08-18T17:38:06.306Z,108
2017-08-18T17:40:30.619Z,112
2017-08-18T17:42:54.910Z,136
2017-08-18T17:45:19.177Z,140
2017-08-18T17:47:43.450Z,112
2017-08-18T17:50:08.237Z,100
2017-08-18T17:52:32.554Z,92
2017-08-18T17:54:56.830Z,104
2017-08-18T17:57:21.096Z,132
2017-08-18T17:59:45.284Z,144
2017-08-18T18:02:09.497Z,148
2017-08-18T18:04:33.778Z,164
2017-08-18T18:06:58.039Z,196
2017-08-18T18:09:22.314Z,220
2017-08-18T18:11:38.189Z,196
2017-08-18T18:14:02.377Z,180
2017-08-18T18:17:50.408Z,120
2017-08-18T18:20:14.886Z,96
2017-08-18T18:22:39.814Z,60
2017-08-18T18:25:04.083Z,44
2017-08-18T18:27:28.340Z,36
2017-08-18T18:29:38.861Z,28
2017-08-18T18:32:03.111Z,24
2017-08-18T18:34:27.265Z,20
2017-08-18T18:36:51.729Z,12
2017-08-18T18:39:15.734Z,8
2017-08-18T18:41:31.637Z,4
2017-08-18T18:43:55.855Z,4
2017-08-18T18:46:20.113Z,4
2017-08-18T18:48:44.452Z,4
2017-08-18T18:51:09.283Z,0
2017-08-18T18:53:33.767Z,0
2017-08-18T18:55:58.064Z,0
2017-08-18T18:58:22.399Z,0
2017-08-18T19:00:46.617Z,0
2017-08-18T19:03:10.794Z,0
2017-08-18T19:05:35.022Z,0
2017-08-18T19:07:59.275Z,0
2017-08-18T19:10:23.438Z,0
2017-08-18T19:12:47.717Z,0
2017-08-18T19:15:11.881Z,0
2017-08-18T19:17:27.609Z,0
2017-08-18T19:19:51.960Z,0
2017-08-18T19:22:16.288Z,0
2017-08-18T19:24:40.442Z,0
2017-08-18T19:27:04.596Z,0
2017-08-18T19:29:29.124Z,0
2017-08-18T19:31:53.315Z,0
2017-08-18T19:34:17.542Z,0
2017-08-18T19:36:41.842Z,0
2017-08-18T19:39:06.113Z,0
2017-08-18T19:41:30.280Z,0
2017-08-18T19:45:30.851Z,0
2017-08-18T19:47:54.992Z,0
2017-08-18T19:50:10.691Z,0
2017-08-18T19:52:26.378Z,0
2017-08-18T19:54:50.457Z,0
2017-08-18T19:57:14.570Z,0
2017-08-18T19:59:38.633Z,0
2017-08-18T20:02:02.742Z,0
2017-08-18T20:04:26.866Z,0
2017-08-18T20:06:50.944Z,0
2017-08-18T20:09:15.160Z,0
2017-08-18T20:11:39.263Z,0
2017-08-18T20:14:03.430Z,0
2017-08-18T20:16:27.525Z,0
2017-08-18T20:18:52.808Z,0
2017-08-18T20:21:17.833Z,0
2017-08-18T20:23:42.015Z,0
2017-08-18T20:26:06.193Z,0
2017-08-18T20:28:30.373Z,0
2017-08-18T20:30:54.446Z,0
2017-08-18T20:33:18.517Z,0
2017-08-18T20:35:42.643Z,0
2017-08-18T20:38:06.759Z,0
2017-08-18T20:40:22.358Z,0
2017-08-18T20:42:46.514Z,0
2017-08-18T20:45:10.612Z,0
2017-08-18T20:47:34.670Z,0
2017-08-18T20:49:58.732Z,0
2017-08-18T20:52:22.849Z,0
2017-08-18T20:54:46.932Z,0
2017-08-18T20:57:11.072Z,0
2017-08-18T20:59:35.209Z,0
2017-08-18T21:01:59.377Z,0
2017-08-18T21:05:51.378Z,0
2017-08-18T21:08:15.515Z,0
2017-08-18T21:10:39.637Z,0
2017-08-18T21:15:06.589Z,0
2017-08-18T21:17:30.725Z,0
2017-08-18T21:19:54.862Z,0
2017-08-18T21:22:18.929Z,0
2017-08-18T21:24:43.046Z,0
2017-08-18T21:26:50.260Z,0
2017-08-18T21:29:14.343Z,0
2017-08-18T21:31:21.548Z,0
2017-08-18T21:33:45.649Z,0
2017-08-18T21:35:56.104Z,0
2017-08-18T21:38:11.781Z,0
2017-08-18T21:40:35.900Z,0
2017-08-18T21:42:59.955Z,0
2017-08-18T21:45:24.052Z,0
2017-08-18T21:47:39.702Z,0
2017-08-18T21:51:39.645Z,0
2017-08-18T21:54:03.747Z,0
2017-08-18T21:56:27.892Z,0
2017-08-18T21:58:52.002Z,0
2017-08-18T22:01:16.082Z,0
2017-08-18T22:03:40.206Z,0
2017-08-18T22:05:50.668Z,0
2017-08-18T22:08:14.783Z,0
2017-08-18T22:10:38.905Z,0
2017-08-18T22:13:03.043Z,0
2017-08-18T22:15:27.188Z,0
2017-08-18T22:17:51.264Z,0
2017-08-18T22:20:15.336Z,0
2017-08-18T22:22:39.436Z,0
2017-08-18T22:25:03.532Z,0
2017-08-18T22:27:27.645Z,0
2017-08-18T22:29:51.796Z,0
2017-08-18T22:32:16.050Z,0
2017-08-18T22:34:40.157Z,0
2017-08-18T22:37:04.272Z,0
2017-08-18T22:39:28.296Z,0
2017-08-18T22:43:14.570Z,0
2017-08-18T22:47:40.108Z,0
2017-08-18T22:50:04.237Z,0
2017-08-18T22:54:30.630Z,0
2017-08-18T22:56:54.752Z,0
2017-08-18T22:59:10.407Z,0
2017-08-18T23:01:34.477Z,0
2017-08-18T23:03:58.580Z,0
2017-08-18T23:07:59.010Z,0
2017-08-18T23:10:23.004Z,0
2017-08-18T23:12:47.077Z,0
2017-08-18T23:16:46.854Z,0
2017-08-18T23:19:10.976Z,0
2017-08-18T23:21:35.032Z,0
2017-08-18T23:23:59.023Z,0
2017-08-18T23:27:59.278Z,0
2017-08-18T23:30:23.360Z,0
2017-08-18T23:32:47.916Z,0
2017-08-18T23:38:50.841Z,0
2017-08-18T23:41:14.832Z,0
2017-08-18T23:43:45.523Z,0
2017-08-18T23:46:09.492Z,0
2017-08-18T23:50:09.740Z,0
2017-08-18T23:52:33.815Z,0
2017-08-18T23:54:57.835Z,0
2017-08-18T23:57:21.865Z,0
